sensor_id;sensor_type;location;lat;lon;timestamp;P1;durP1;ratioP1;P2;durP2;ratioP2
11699;SDS011;5906;51.660;6.674;2023-05-14T00:00:14;16.80;;;13.40;;
11699;SDS011;5906;51.660;6.674;2023-05-14T00:02:41;20.90;;;14.20;;
11699;SDS011;5906;51.660;6.674;2023-05-14T00:05:08;17.80;;;14.20;;
11699;SDS011;5906;51.660;6.674;2023-05-14T00:07:36;17.40;;;13.40;;
11699;SDS011;5906;51.660;6.674;2023-05-14T00:10:03;20.77;;;13.60;;
11699;SDS011;5906;51.660;6.674;2023-05-14T00:12:30;18.10;;;13.63;;
11699;SDS011;5906;51.660;6.674;2023-05-14T00:14:57;20.60;;;14.10;;
11699;SDS011;5906;51.660;6.674;2023-05-14T00:17:24;17.33;;;14.10;;
11699;SDS011;5906;51.660;6.674;2023-05-14T00:19:51;17.83;;;14.17;;
11699;SDS011;5906;51.660;6.674;2023-05-14T00:22:18;17.40;;;14.27;;
11699;SDS011;5906;51.660;6.674;2023-05-14T00:24:46;20.90;;;15.00;;
11699;SDS011;5906;51.660;6.674;2023-05-14T00:27:13;19.20;;;14.30;;
11699;SDS011;5906;51.660;6.674;2023-05-14T00:29:40;19.47;;;13.93;;
11699;SDS011;5906;51.660;6.674;2023-05-14T00:32:07;20.60;;;14.57;;
11699;SDS011;5906;51.660;6.674;2023-05-14T00:34:34;22.57;;;13.90;;
11699;SDS011;5906;51.660;6.674;2023-05-14T00:37:02;20.27;;;13.90;;
11699;SDS011;5906;51.660;6.674;2023-05-14T00:39:29;19.93;;;15.73;;
11699;SDS011;5906;51.660;6.674;2023-05-14T00:41:56;21.70;;;15.73;;
11699;SDS011;5906;51.660;6.674;2023-05-14T00:44:23;20.40;;;15.33;;
11699;SDS011;5906;51.660;6.674;2023-05-14T00:46:51;25.97;;;16.07;;
11699;SDS011;5906;51.660;6.674;2023-05-14T00:49:18;19.60;;;15.53;;
11699;SDS011;5906;51.660;6.674;2023-05-14T00:51:46;25.20;;;16.50;;
11699;SDS011;5906;51.660;6.674;2023-05-14T00:54:14;21.30;;;15.10;;
11699;SDS011;5906;51.660;6.674;2023-05-14T00:56:43;19.87;;;14.70;;
11699;SDS011;5906;51.660;6.674;2023-05-14T00:59:11;19.97;;;14.10;;
11699;SDS011;5906;51.660;6.674;2023-05-14T01:01:39;34.87;;;15.10;;
11699;SDS011;5906;51.660;6.674;2023-05-14T01:04:06;21.10;;;15.33;;
11699;SDS011;5906;51.660;6.674;2023-05-14T01:12:44;22.30;;;15.90;;
11699;SDS011;5906;51.660;6.674;2023-05-14T01:15:25;19.20;;;14.00;;
11699;SDS011;5906;51.660;6.674;2023-05-14T01:18:04;21.47;;;16.10;;
11699;SDS011;5906;51.660;6.674;2023-05-14T01:20:32;29.27;;;16.93;;
11699;SDS011;5906;51.660;6.674;2023-05-14T01:22:59;21.90;;;16.60;;
11699;SDS011;5906;51.660;6.674;2023-05-14T01:25:26;23.90;;;16.87;;
11699;SDS011;5906;51.660;6.674;2023-05-14T01:28:12;24.77;;;17.33;;
11699;SDS011;5906;51.660;6.674;2023-05-14T01:33:33;19.70;;;16.00;;
11699;SDS011;5906;51.660;6.674;2023-05-14T01:36:02;25.30;;;16.97;;
11699;SDS011;5906;51.660;6.674;2023-05-14T01:38:30;27.33;;;17.93;;
11699;SDS011;5906;51.660;6.674;2023-05-14T01:40:59;25.97;;;17.77;;
11699;SDS011;5906;51.660;6.674;2023-05-14T01:43:27;25.37;;;18.10;;
11699;SDS011;5906;51.660;6.674;2023-05-14T01:45:55;24.23;;;18.20;;
11699;SDS011;5906;51.660;6.674;2023-05-14T01:48:22;23.93;;;17.00;;
11699;SDS011;5906;51.660;6.674;2023-05-14T01:50:49;25.47;;;18.10;;
11699;SDS011;5906;51.660;6.674;2023-05-14T01:53:17;22.03;;;17.00;;
11699;SDS011;5906;51.660;6.674;2023-05-14T01:55:44;23.63;;;18.07;;
11699;SDS011;5906;51.660;6.674;2023-05-14T01:58:11;23.20;;;16.83;;
11699;SDS011;5906;51.660;6.674;2023-05-14T02:00:38;24.10;;;18.17;;
11699;SDS011;5906;51.660;6.674;2023-05-14T02:03:05;25.00;;;18.00;;
11699;SDS011;5906;51.660;6.674;2023-05-14T02:05:32;32.10;;;18.60;;
11699;SDS011;5906;51.660;6.674;2023-05-14T02:07:59;29.47;;;18.63;;
11699;SDS011;5906;51.660;6.674;2023-05-14T02:10:27;28.40;;;18.10;;
11699;SDS011;5906;51.660;6.674;2023-05-14T02:12:54;26.30;;;18.27;;
11699;SDS011;5906;51.660;6.674;2023-05-14T02:15:21;23.93;;;17.60;;
11699;SDS011;5906;51.660;6.674;2023-05-14T02:17:48;23.60;;;17.10;;
11699;SDS011;5906;51.660;6.674;2023-05-14T02:20:15;24.23;;;17.60;;
11699;SDS011;5906;51.660;6.674;2023-05-14T02:22:42;25.70;;;18.17;;
11699;SDS011;5906;51.660;6.674;2023-05-14T02:25:11;23.53;;;18.07;;
11699;SDS011;5906;51.660;6.674;2023-05-14T02:27:38;27.60;;;18.70;;
11699;SDS011;5906;51.660;6.674;2023-05-14T02:30:05;25.33;;;17.13;;
11699;SDS011;5906;51.660;6.674;2023-05-14T02:32:33;31.30;;;18.10;;
11699;SDS011;5906;51.660;6.674;2023-05-14T02:35:00;23.20;;;17.70;;
11699;SDS011;5906;51.660;6.674;2023-05-14T02:37:27;25.13;;;18.13;;
11699;SDS011;5906;51.660;6.674;2023-05-14T02:39:54;31.10;;;18.90;;
11699;SDS011;5906;51.660;6.674;2023-05-14T02:42:21;24.80;;;17.47;;
11699;SDS011;5906;51.660;6.674;2023-05-14T02:44:48;25.80;;;18.70;;
11699;SDS011;5906;51.660;6.674;2023-05-14T02:47:17;29.87;;;16.93;;
11699;SDS011;5906;51.660;6.674;2023-05-14T02:49:44;25.53;;;17.70;;
11699;SDS011;5906;51.660;6.674;2023-05-14T02:52:11;24.23;;;16.83;;
11699;SDS011;5906;51.660;6.674;2023-05-14T02:54:38;27.73;;;18.27;;
11699;SDS011;5906;51.660;6.674;2023-05-14T02:57:05;24.70;;;17.63;;
11699;SDS011;5906;51.660;6.674;2023-05-14T02:59:33;23.23;;;17.37;;
11699;SDS011;5906;51.660;6.674;2023-05-14T03:02:01;25.93;;;16.90;;
11699;SDS011;5906;51.660;6.674;2023-05-14T03:04:28;23.63;;;16.37;;
11699;SDS011;5906;51.660;6.674;2023-05-14T03:06:55;27.17;;;16.70;;
11699;SDS011;5906;51.660;6.674;2023-05-14T03:09:22;23.67;;;16.60;;
11699;SDS011;5906;51.660;6.674;2023-05-14T03:11:49;22.87;;;16.73;;
11699;SDS011;5906;51.660;6.674;2023-05-14T03:14:16;25.70;;;16.50;;
11699;SDS011;5906;51.660;6.674;2023-05-14T03:16:43;23.93;;;17.00;;
11699;SDS011;5906;51.660;6.674;2023-05-14T03:19:10;23.60;;;17.27;;
11699;SDS011;5906;51.660;6.674;2023-05-14T03:21:37;25.70;;;16.33;;
11699;SDS011;5906;51.660;6.674;2023-05-14T03:24:04;30.63;;;16.07;;
11699;SDS011;5906;51.660;6.674;2023-05-14T03:26:32;24.10;;;15.97;;
11699;SDS011;5906;51.660;6.674;2023-05-14T03:28:59;26.57;;;16.83;;
11699;SDS011;5906;51.660;6.674;2023-05-14T03:31:26;21.10;;;15.80;;
11699;SDS011;5906;51.660;6.674;2023-05-14T03:33:53;22.60;;;16.73;;
11699;SDS011;5906;51.660;6.674;2023-05-14T03:36:20;25.33;;;17.70;;
11699;SDS011;5906;51.660;6.674;2023-05-14T03:38:47;23.50;;;16.60;;
11699;SDS011;5906;51.660;6.674;2023-05-14T03:41:14;24.73;;;17.17;;
11699;SDS011;5906;51.660;6.674;2023-05-14T03:43:41;24.23;;;16.40;;
11699;SDS011;5906;51.660;6.674;2023-05-14T03:46:08;22.53;;;15.80;;
11699;SDS011;5906;51.660;6.674;2023-05-14T03:48:34;25.23;;;17.27;;
11699;SDS011;5906;51.660;6.674;2023-05-14T03:51:02;27.00;;;17.77;;
11699;SDS011;5906;51.660;6.674;2023-05-14T03:53:29;28.97;;;17.00;;
11699;SDS011;5906;51.660;6.674;2023-05-14T03:55:56;29.30;;;17.90;;
11699;SDS011;5906;51.660;6.674;2023-05-14T03:58:22;24.77;;;18.17;;
11699;SDS011;5906;51.660;6.674;2023-05-14T04:00:49;24.20;;;16.43;;
11699;SDS011;5906;51.660;6.674;2023-05-14T04:03:16;24.07;;;17.07;;
11699;SDS011;5906;51.660;6.674;2023-05-14T04:05:43;22.87;;;16.47;;
11699;SDS011;5906;51.660;6.674;2023-05-14T04:08:11;27.30;;;18.10;;
11699;SDS011;5906;51.660;6.674;2023-05-14T04:10:38;27.87;;;17.60;;
11699;SDS011;5906;51.660;6.674;2023-05-14T04:13:05;22.50;;;16.30;;
11699;SDS011;5906;51.660;6.674;2023-05-14T04:15:32;30.53;;;18.57;;
11699;SDS011;5906;51.660;6.674;2023-05-14T04:18:00;26.60;;;16.53;;
11699;SDS011;5906;51.660;6.674;2023-05-14T04:20:27;23.53;;;17.30;;
11699;SDS011;5906;51.660;6.674;2023-05-14T04:22:55;25.13;;;18.00;;
11699;SDS011;5906;51.660;6.674;2023-05-14T04:25:21;26.10;;;17.17;;
11699;SDS011;5906;51.660;6.674;2023-05-14T04:27:49;27.00;;;17.53;;
11699;SDS011;5906;51.660;6.674;2023-05-14T04:30:16;27.20;;;16.67;;
11699;SDS011;5906;51.660;6.674;2023-05-14T04:32:43;26.77;;;17.03;;
11699;SDS011;5906;51.660;6.674;2023-05-14T04:35:11;23.60;;;17.80;;
11699;SDS011;5906;51.660;6.674;2023-05-14T04:37:38;26.53;;;17.23;;
11699;SDS011;5906;51.660;6.674;2023-05-14T04:40:07;24.10;;;14.90;;
11699;SDS011;5906;51.660;6.674;2023-05-14T04:42:36;23.43;;;17.00;;
11699;SDS011;5906;51.660;6.674;2023-05-14T04:45:04;26.33;;;17.80;;
11699;SDS011;5906;51.660;6.674;2023-05-14T04:47:32;29.43;;;17.63;;
11699;SDS011;5906;51.660;6.674;2023-05-14T04:49:59;29.27;;;16.67;;
11699;SDS011;5906;51.660;6.674;2023-05-14T04:52:26;24.47;;;17.13;;
11699;SDS011;5906;51.660;6.674;2023-05-14T04:54:53;29.07;;;18.17;;
11699;SDS011;5906;51.660;6.674;2023-05-14T04:57:20;26.53;;;18.03;;
11699;SDS011;5906;51.660;6.674;2023-05-14T04:59:47;29.50;;;18.00;;
11699;SDS011;5906;51.660;6.674;2023-05-14T05:02:14;23.60;;;16.40;;
11699;SDS011;5906;51.660;6.674;2023-05-14T05:04:42;21.83;;;15.80;;
11699;SDS011;5906;51.660;6.674;2023-05-14T05:07:09;22.37;;;15.73;;
11699;SDS011;5906;51.660;6.674;2023-05-14T05:09:36;32.73;;;15.83;;
11699;SDS011;5906;51.660;6.674;2023-05-14T05:12:03;22.83;;;15.20;;
11699;SDS011;5906;51.660;6.674;2023-05-14T05:14:31;22.50;;;15.80;;
11699;SDS011;5906;51.660;6.674;2023-05-14T05:16:58;19.73;;;15.63;;
11699;SDS011;5906;51.660;6.674;2023-05-14T05:19:25;26.40;;;14.57;;
11699;SDS011;5906;51.660;6.674;2023-05-14T05:22:08;18.33;;;14.47;;
11699;SDS011;5906;51.660;6.674;2023-05-14T05:24:35;20.60;;;15.50;;
11699;SDS011;5906;51.660;6.674;2023-05-14T05:27:03;27.37;;;15.30;;
11699;SDS011;5906;51.660;6.674;2023-05-14T05:29:30;18.50;;;13.90;;
11699;SDS011;5906;51.660;6.674;2023-05-14T05:31:58;19.07;;;13.83;;
11699;SDS011;5906;51.660;6.674;2023-05-14T05:34:25;17.03;;;14.03;;
11699;SDS011;5906;51.660;6.674;2023-05-14T05:36:52;15.60;;;13.37;;
11699;SDS011;5906;51.660;6.674;2023-05-14T05:39:19;19.43;;;13.00;;
11699;SDS011;5906;51.660;6.674;2023-05-14T05:41:46;19.40;;;13.43;;
11699;SDS011;5906;51.660;6.674;2023-05-14T05:44:13;18.40;;;13.20;;
11699;SDS011;5906;51.660;6.674;2023-05-14T05:46:40;17.00;;;13.70;;
11699;SDS011;5906;51.660;6.674;2023-05-14T05:49:07;17.60;;;13.47;;
11699;SDS011;5906;51.660;6.674;2023-05-14T05:51:34;16.90;;;12.93;;
11699;SDS011;5906;51.660;6.674;2023-05-14T05:54:01;17.37;;;13.23;;
11699;SDS011;5906;51.660;6.674;2023-05-14T05:56:28;21.53;;;12.73;;
11699;SDS011;5906;51.660;6.674;2023-05-14T05:58:55;16.83;;;13.23;;
11699;SDS011;5906;51.660;6.674;2023-05-14T06:01:21;16.67;;;13.00;;
11699;SDS011;5906;51.660;6.674;2023-05-14T06:03:48;18.40;;;13.50;;
11699;SDS011;5906;51.660;6.674;2023-05-14T06:06:16;20.43;;;13.33;;
11699;SDS011;5906;51.660;6.674;2023-05-14T06:08:42;20.83;;;13.23;;
11699;SDS011;5906;51.660;6.674;2023-05-14T06:11:10;21.73;;;13.83;;
11699;SDS011;5906;51.660;6.674;2023-05-14T06:13:37;17.50;;;13.13;;
11699;SDS011;5906;51.660;6.674;2023-05-14T06:16:04;20.37;;;13.80;;
11699;SDS011;5906;51.660;6.674;2023-05-14T06:18:31;16.37;;;13.80;;
11699;SDS011;5906;51.660;6.674;2023-05-14T06:20:58;17.57;;;13.80;;
11699;SDS011;5906;51.660;6.674;2023-05-14T06:23:25;21.80;;;15.20;;
11699;SDS011;5906;51.660;6.674;2023-05-14T06:25:53;17.43;;;14.27;;
11699;SDS011;5906;51.660;6.674;2023-05-14T06:28:21;18.40;;;14.00;;
11699;SDS011;5906;51.660;6.674;2023-05-14T06:30:48;19.07;;;13.93;;
11699;SDS011;5906;51.660;6.674;2023-05-14T06:33:15;21.93;;;14.93;;
11699;SDS011;5906;51.660;6.674;2023-05-14T06:35:46;16.87;;;13.47;;
11699;SDS011;5906;51.660;6.674;2023-05-14T06:38:14;21.70;;;15.50;;
11699;SDS011;5906;51.660;6.674;2023-05-14T06:40:41;16.47;;;14.33;;
11699;SDS011;5906;51.660;6.674;2023-05-14T06:43:09;16.40;;;14.00;;
11699;SDS011;5906;51.660;6.674;2023-05-14T06:45:35;16.30;;;13.53;;
11699;SDS011;5906;51.660;6.674;2023-05-14T06:48:03;17.40;;;13.70;;
11699;SDS011;5906;51.660;6.674;2023-05-14T06:50:30;19.13;;;14.47;;
11699;SDS011;5906;51.660;6.674;2023-05-14T06:52:57;18.73;;;14.03;;
11699;SDS011;5906;51.660;6.674;2023-05-14T06:55:24;15.43;;;13.63;;
11699;SDS011;5906;51.660;6.674;2023-05-14T06:57:51;16.80;;;14.60;;
11699;SDS011;5906;51.660;6.674;2023-05-14T07:00:18;17.90;;;13.70;;
11699;SDS011;5906;51.660;6.674;2023-05-14T07:02:45;19.00;;;13.80;;
11699;SDS011;5906;51.660;6.674;2023-05-14T07:05:12;19.50;;;14.53;;
11699;SDS011;5906;51.660;6.674;2023-05-14T07:07:39;18.07;;;14.57;;
11699;SDS011;5906;51.660;6.674;2023-05-14T07:10:07;16.13;;;13.87;;
11699;SDS011;5906;51.660;6.674;2023-05-14T07:12:34;17.00;;;13.63;;
11699;SDS011;5906;51.660;6.674;2023-05-14T07:15:01;19.60;;;13.90;;
11699;SDS011;5906;51.660;6.674;2023-05-14T07:17:28;21.70;;;13.50;;
11699;SDS011;5906;51.660;6.674;2023-05-14T07:19:55;21.13;;;14.17;;
11699;SDS011;5906;51.660;6.674;2023-05-14T07:22:22;18.53;;;13.27;;
11699;SDS011;5906;51.660;6.674;2023-05-14T07:24:49;17.77;;;14.30;;
11699;SDS011;5906;51.660;6.674;2023-05-14T07:27:16;15.87;;;13.00;;
11699;SDS011;5906;51.660;6.674;2023-05-14T07:29:43;19.90;;;14.00;;
11699;SDS011;5906;51.660;6.674;2023-05-14T07:32:11;18.30;;;13.37;;
11699;SDS011;5906;51.660;6.674;2023-05-14T07:34:40;15.73;;;13.00;;
11699;SDS011;5906;51.660;6.674;2023-05-14T07:37:08;16.47;;;13.33;;
11699;SDS011;5906;51.660;6.674;2023-05-14T07:39:34;12.60;;;10.30;;
11699;SDS011;5906;51.660;6.674;2023-05-14T07:42:01;17.33;;;10.60;;
11699;SDS011;5906;51.660;6.674;2023-05-14T07:44:29;14.17;;;10.60;;
11699;SDS011;5906;51.660;6.674;2023-05-14T07:46:56;14.53;;;10.20;;
11699;SDS011;5906;51.660;6.674;2023-05-14T07:49:23;12.40;;;10.40;;
11699;SDS011;5906;51.660;6.674;2023-05-14T07:51:50;14.70;;;10.20;;
11699;SDS011;5906;51.660;6.674;2023-05-14T07:54:17;11.50;;;9.77;;
11699;SDS011;5906;51.660;6.674;2023-05-14T07:56:44;14.57;;;10.00;;
11699;SDS011;5906;51.660;6.674;2023-05-14T07:59:11;13.93;;;9.97;;
11699;SDS011;5906;51.660;6.674;2023-05-14T08:01:39;11.80;;;8.80;;
11699;SDS011;5906;51.660;6.674;2023-05-14T08:04:05;12.10;;;9.10;;
11699;SDS011;5906;51.660;6.674;2023-05-14T08:06:33;19.63;;;9.40;;
11699;SDS011;5906;51.660;6.674;2023-05-14T08:09:00;9.87;;;8.53;;
11699;SDS011;5906;51.660;6.674;2023-05-14T08:11:28;11.30;;;8.50;;
11699;SDS011;5906;51.660;6.674;2023-05-14T08:13:55;11.80;;;9.40;;
11699;SDS011;5906;51.660;6.674;2023-05-14T08:16:22;11.10;;;8.57;;
11699;SDS011;5906;51.660;6.674;2023-05-14T08:18:51;12.17;;;9.20;;
11699;SDS011;5906;51.660;6.674;2023-05-14T08:21:19;9.03;;;8.13;;
11699;SDS011;5906;51.660;6.674;2023-05-14T08:23:46;10.50;;;8.60;;
11699;SDS011;5906;51.660;6.674;2023-05-14T08:26:13;11.53;;;9.00;;
11699;SDS011;5906;51.660;6.674;2023-05-14T08:28:40;11.23;;;8.00;;
11699;SDS011;5906;51.660;6.674;2023-05-14T08:31:07;12.17;;;7.53;;
11699;SDS011;5906;51.660;6.674;2023-05-14T08:33:34;9.30;;;7.23;;
11699;SDS011;5906;51.660;6.674;2023-05-14T08:36:01;8.80;;;7.43;;
11699;SDS011;5906;51.660;6.674;2023-05-14T08:38:28;11.00;;;8.20;;
11699;SDS011;5906;51.660;6.674;2023-05-14T08:40:55;11.07;;;7.60;;
11699;SDS011;5906;51.660;6.674;2023-05-14T08:43:25;8.83;;;7.23;;
11699;SDS011;5906;51.660;6.674;2023-05-14T08:45:56;7.97;;;6.90;;
11699;SDS011;5906;51.660;6.674;2023-05-14T08:48:27;9.50;;;7.93;;
11699;SDS011;5906;51.660;6.674;2023-05-14T08:51:00;14.17;;;8.27;;
11699;SDS011;5906;51.660;6.674;2023-05-14T08:53:28;9.43;;;7.90;;
11699;SDS011;5906;51.660;6.674;2023-05-14T08:55:56;10.60;;;7.87;;
11699;SDS011;5906;51.660;6.674;2023-05-14T08:58:25;10.43;;;8.50;;
11699;SDS011;5906;51.660;6.674;2023-05-14T09:00:54;10.00;;;7.90;;
11699;SDS011;5906;51.660;6.674;2023-05-14T09:03:22;13.63;;;7.43;;
11699;SDS011;5906;51.660;6.674;2023-05-14T09:05:49;9.93;;;7.50;;
11699;SDS011;5906;51.660;6.674;2023-05-14T09:08:17;10.67;;;8.20;;
11699;SDS011;5906;51.660;6.674;2023-05-14T09:10:45;9.27;;;7.47;;
11699;SDS011;5906;51.660;6.674;2023-05-14T09:13:12;8.70;;;7.47;;
11699;SDS011;5906;51.660;6.674;2023-05-14T09:15:39;11.70;;;7.80;;
11699;SDS011;5906;51.660;6.674;2023-05-14T09:18:06;9.37;;;7.57;;
11699;SDS011;5906;51.660;6.674;2023-05-14T09:20:33;7.10;;;6.33;;
11699;SDS011;5906;51.660;6.674;2023-05-14T09:23:01;10.63;;;7.07;;
11699;SDS011;5906;51.660;6.674;2023-05-14T09:25:31;7.20;;;5.90;;
11699;SDS011;5906;51.660;6.674;2023-05-14T09:27:58;9.97;;;6.33;;
11699;SDS011;5906;51.660;6.674;2023-05-14T09:30:26;8.80;;;6.20;;
11699;SDS011;5906;51.660;6.674;2023-05-14T09:32:53;7.47;;;6.67;;
11699;SDS011;5906;51.660;6.674;2023-05-14T09:35:23;6.77;;;6.07;;
11699;SDS011;5906;51.660;6.674;2023-05-14T09:37:51;8.33;;;6.27;;
11699;SDS011;5906;51.660;6.674;2023-05-14T09:40:21;7.33;;;6.03;;
11699;SDS011;5906;51.660;6.674;2023-05-14T09:42:50;7.60;;;6.83;;
11699;SDS011;5906;51.660;6.674;2023-05-14T09:45:17;8.70;;;7.60;;
11699;SDS011;5906;51.660;6.674;2023-05-14T09:47:44;8.70;;;7.80;;
11699;SDS011;5906;51.660;6.674;2023-05-14T09:50:12;9.50;;;6.87;;
11699;SDS011;5906;51.660;6.674;2023-05-14T09:52:39;8.87;;;7.17;;
11699;SDS011;5906;51.660;6.674;2023-05-14T09:55:06;9.20;;;6.80;;
11699;SDS011;5906;51.660;6.674;2023-05-14T09:57:33;7.67;;;6.53;;
11699;SDS011;5906;51.660;6.674;2023-05-14T10:00:01;7.97;;;7.17;;
11699;SDS011;5906;51.660;6.674;2023-05-14T10:02:29;13.77;;;7.13;;
11699;SDS011;5906;51.660;6.674;2023-05-14T10:05:03;9.37;;;6.43;;
11699;SDS011;5906;51.660;6.674;2023-05-14T10:07:38;5.13;;;4.60;;
11699;SDS011;5906;51.660;6.674;2023-05-14T10:10:12;14.90;;;4.83;;
11699;SDS011;5906;51.660;6.674;2023-05-14T10:12:56;7.97;;;5.03;;
11699;SDS011;5906;51.660;6.674;2023-05-14T10:15:35;6.90;;;4.60;;
11699;SDS011;5906;51.660;6.674;2023-05-14T10:18:11;6.77;;;4.83;;
11699;SDS011;5906;51.660;6.674;2023-05-14T10:20:43;7.87;;;5.00;;
11699;SDS011;5906;51.660;6.674;2023-05-14T10:23:13;7.90;;;4.60;;
11699;SDS011;5906;51.660;6.674;2023-05-14T10:25:41;4.63;;;4.23;;
11699;SDS011;5906;51.660;6.674;2023-05-14T10:28:08;9.10;;;4.87;;
11699;SDS011;5906;51.660;6.674;2023-05-14T10:30:40;5.60;;;5.00;;
11699;SDS011;5906;51.660;6.674;2023-05-14T10:33:10;4.97;;;4.47;;
11699;SDS011;5906;51.660;6.674;2023-05-14T10:38:36;5.60;;;5.10;;
11699;SDS011;5906;51.660;6.674;2023-05-14T10:41:05;7.37;;;4.27;;
11699;SDS011;5906;51.660;6.674;2023-05-14T10:43:36;10.00;;;5.60;;
11699;SDS011;5906;51.660;6.674;2023-05-14T10:46:05;7.23;;;4.57;;
11699;SDS011;5906;51.660;6.674;2023-05-14T10:48:33;5.27;;;4.47;;
11699;SDS011;5906;51.660;6.674;2023-05-14T10:51:01;6.23;;;4.37;;
11699;SDS011;5906;51.660;6.674;2023-05-14T10:53:29;6.80;;;4.60;;
11699;SDS011;5906;51.660;6.674;2023-05-14T10:56:02;11.03;;;4.93;;
11699;SDS011;5906;51.660;6.674;2023-05-14T10:58:37;5.30;;;4.20;;
11699;SDS011;5906;51.660;6.674;2023-05-14T11:01:06;4.33;;;3.93;;
11699;SDS011;5906;51.660;6.674;2023-05-14T11:03:38;13.67;;;4.73;;
11699;SDS011;5906;51.660;6.674;2023-05-14T11:06:08;10.00;;;4.30;;
11699;SDS011;5906;51.660;6.674;2023-05-14T11:08:36;6.47;;;4.50;;
11699;SDS011;5906;51.660;6.674;2023-05-14T11:11:04;5.80;;;4.30;;
11699;SDS011;5906;51.660;6.674;2023-05-14T11:13:32;5.90;;;4.17;;
11699;SDS011;5906;51.660;6.674;2023-05-14T11:16:00;4.17;;;3.70;;
11699;SDS011;5906;51.660;6.674;2023-05-14T11:18:46;3.70;;;3.40;;
11699;SDS011;5906;51.660;6.674;2023-05-14T11:21:15;7.47;;;3.40;;
11699;SDS011;5906;51.660;6.674;2023-05-14T11:23:45;5.80;;;3.50;;
11699;SDS011;5906;51.660;6.674;2023-05-14T11:26:12;3.93;;;3.40;;
11699;SDS011;5906;51.660;6.674;2023-05-14T11:28:39;6.60;;;4.57;;
11699;SDS011;5906;51.660;6.674;2023-05-14T11:31:06;4.03;;;3.00;;
11699;SDS011;5906;51.660;6.674;2023-05-14T11:33:33;4.77;;;3.13;;
11699;SDS011;5906;51.660;6.674;2023-05-14T11:36:02;2.93;;;2.73;;
11699;SDS011;5906;51.660;6.674;2023-05-14T11:38:29;5.63;;;2.90;;
11699;SDS011;5906;51.660;6.674;2023-05-14T11:40:58;6.30;;;3.63;;
11699;SDS011;5906;51.660;6.674;2023-05-14T11:43:25;4.50;;;2.87;;
11699;SDS011;5906;51.660;6.674;2023-05-14T11:45:54;5.67;;;3.47;;
11699;SDS011;5906;51.660;6.674;2023-05-14T11:48:22;8.20;;;3.13;;
11699;SDS011;5906;51.660;6.674;2023-05-14T11:50:50;10.03;;;3.30;;
11699;SDS011;5906;51.660;6.674;2023-05-14T11:53:18;3.07;;;2.77;;
11699;SDS011;5906;51.660;6.674;2023-05-14T11:55:54;3.43;;;3.13;;
11699;SDS011;5906;51.660;6.674;2023-05-14T11:58:25;4.20;;;3.80;;
11699;SDS011;5906;51.660;6.674;2023-05-14T12:00:52;5.70;;;3.63;;
11699;SDS011;5906;51.660;6.674;2023-05-14T12:03:21;4.60;;;3.13;;
11699;SDS011;5906;51.660;6.674;2023-05-14T12:05:58;3.57;;;3.33;;
11699;SDS011;5906;51.660;6.674;2023-05-14T12:08:27;4.97;;;3.17;;
11699;SDS011;5906;51.660;6.674;2023-05-14T12:10:59;6.83;;;3.40;;
11699;SDS011;5906;51.660;6.674;2023-05-14T12:13:30;8.20;;;3.17;;
11699;SDS011;5906;51.660;6.674;2023-05-14T12:15:58;5.40;;;2.90;;
11699;SDS011;5906;51.660;6.674;2023-05-14T12:18:29;3.50;;;2.80;;
11699;SDS011;5906;51.660;6.674;2023-05-14T12:21:01;5.63;;;3.20;;
11699;SDS011;5906;51.660;6.674;2023-05-14T12:23:29;3.20;;;2.70;;
11699;SDS011;5906;51.660;6.674;2023-05-14T12:26:04;3.63;;;2.93;;
11699;SDS011;5906;51.660;6.674;2023-05-14T12:28:32;4.83;;;3.00;;
11699;SDS011;5906;51.660;6.674;2023-05-14T12:31:04;2.90;;;2.70;;
11699;SDS011;5906;51.660;6.674;2023-05-14T12:33:31;4.77;;;2.90;;
11699;SDS011;5906;51.660;6.674;2023-05-14T12:35:58;3.87;;;3.10;;
11699;SDS011;5906;51.660;6.674;2023-05-14T12:38:32;5.87;;;3.47;;
11699;SDS011;5906;51.660;6.674;2023-05-14T12:40:59;3.13;;;2.63;;
11699;SDS011;5906;51.660;6.674;2023-05-14T12:43:26;4.07;;;3.17;;
11699;SDS011;5906;51.660;6.674;2023-05-14T12:45:56;3.80;;;2.93;;
11699;SDS011;5906;51.660;6.674;2023-05-14T12:48:23;6.37;;;3.40;;
11699;SDS011;5906;51.660;6.674;2023-05-14T12:50:50;5.13;;;3.30;;
11699;SDS011;5906;51.660;6.674;2023-05-14T12:53:17;3.40;;;2.80;;
11699;SDS011;5906;51.660;6.674;2023-05-14T12:55:44;6.67;;;2.90;;
11699;SDS011;5906;51.660;6.674;2023-05-14T12:58:12;5.67;;;3.20;;
11699;SDS011;5906;51.660;6.674;2023-05-14T13:00:39;4.80;;;2.87;;
11699;SDS011;5906;51.660;6.674;2023-05-14T13:03:06;4.00;;;3.40;;
11699;SDS011;5906;51.660;6.674;2023-05-14T13:05:33;3.87;;;3.47;;
11699;SDS011;5906;51.660;6.674;2023-05-14T13:08:00;3.40;;;3.10;;
11699;SDS011;5906;51.660;6.674;2023-05-14T13:10:29;3.50;;;3.20;;
11699;SDS011;5906;51.660;6.674;2023-05-14T13:12:56;3.67;;;3.07;;
11699;SDS011;5906;51.660;6.674;2023-05-14T13:15:23;5.90;;;3.40;;
11699;SDS011;5906;51.660;6.674;2023-05-14T13:17:51;4.10;;;3.10;;
11699;SDS011;5906;51.660;6.674;2023-05-14T13:20:18;4.10;;;3.00;;
11699;SDS011;5906;51.660;6.674;2023-05-14T13:22:45;10.50;;;3.23;;
11699;SDS011;5906;51.660;6.674;2023-05-14T13:25:12;6.33;;;3.33;;
11699;SDS011;5906;51.660;6.674;2023-05-14T13:27:39;3.30;;;2.87;;
11699;SDS011;5906;51.660;6.674;2023-05-14T13:30:06;4.00;;;3.10;;
11699;SDS011;5906;51.660;6.674;2023-05-14T13:32:34;6.37;;;3.10;;
11699;SDS011;5906;51.660;6.674;2023-05-14T13:35:01;10.07;;;3.30;;
11699;SDS011;5906;51.660;6.674;2023-05-14T13:37:28;3.43;;;2.90;;
11699;SDS011;5906;51.660;6.674;2023-05-14T13:39:55;7.27;;;3.40;;
11699;SDS011;5906;51.660;6.674;2023-05-14T13:42:22;5.10;;;3.47;;
11699;SDS011;5906;51.660;6.674;2023-05-14T13:44:48;5.73;;;3.40;;
11699;SDS011;5906;51.660;6.674;2023-05-14T13:47:16;6.10;;;2.77;;
11699;SDS011;5906;51.660;6.674;2023-05-14T13:49:43;7.00;;;3.20;;
11699;SDS011;5906;51.660;6.674;2023-05-14T13:52:10;3.43;;;3.13;;
11699;SDS011;5906;51.660;6.674;2023-05-14T13:54:40;4.40;;;3.10;;
11699;SDS011;5906;51.660;6.674;2023-05-14T13:57:07;3.20;;;2.90;;
11699;SDS011;5906;51.660;6.674;2023-05-14T13:59:34;3.80;;;3.00;;
11699;SDS011;5906;51.660;6.674;2023-05-14T14:02:01;4.87;;;3.03;;
11699;SDS011;5906;51.660;6.674;2023-05-14T14:04:29;7.30;;;3.40;;
11699;SDS011;5906;51.660;6.674;2023-05-14T14:06:56;10.47;;;3.90;;
11699;SDS011;5906;51.660;6.674;2023-05-14T14:09:23;3.50;;;3.20;;
11699;SDS011;5906;51.660;6.674;2023-05-14T14:11:50;3.13;;;2.83;;
11699;SDS011;5906;51.660;6.674;2023-05-14T14:14:19;3.63;;;2.83;;
11699;SDS011;5906;51.660;6.674;2023-05-14T14:16:46;5.33;;;3.73;;
11699;SDS011;5906;51.660;6.674;2023-05-14T14:19:13;4.70;;;3.20;;
11699;SDS011;5906;51.660;6.674;2023-05-14T14:21:42;4.73;;;3.07;;
11699;SDS011;5906;51.660;6.674;2023-05-14T14:24:10;6.20;;;3.53;;
11699;SDS011;5906;51.660;6.674;2023-05-14T14:26:37;3.77;;;3.37;;
11699;SDS011;5906;51.660;6.674;2023-05-14T14:29:04;15.73;;;3.33;;
11699;SDS011;5906;51.660;6.674;2023-05-14T14:31:34;6.20;;;3.50;;
11699;SDS011;5906;51.660;6.674;2023-05-14T14:34:02;5.37;;;3.30;;
11699;SDS011;5906;51.660;6.674;2023-05-14T14:36:28;4.80;;;3.10;;
11699;SDS011;5906;51.660;6.674;2023-05-14T14:38:56;5.63;;;3.60;;
11699;SDS011;5906;51.660;6.674;2023-05-14T14:41:23;4.50;;;3.47;;
11699;SDS011;5906;51.660;6.674;2023-05-14T14:43:51;5.50;;;3.63;;
11699;SDS011;5906;51.660;6.674;2023-05-14T14:46:18;3.03;;;2.80;;
11699;SDS011;5906;51.660;6.674;2023-05-14T14:48:45;8.83;;;3.17;;
11699;SDS011;5906;51.660;6.674;2023-05-14T14:51:12;5.73;;;3.40;;
11699;SDS011;5906;51.660;6.674;2023-05-14T14:53:39;4.23;;;3.50;;
11699;SDS011;5906;51.660;6.674;2023-05-14T14:56:06;5.80;;;4.20;;
11699;SDS011;5906;51.660;6.674;2023-05-14T14:58:33;9.40;;;4.87;;
11699;SDS011;5906;51.660;6.674;2023-05-14T15:01:00;5.10;;;4.70;;